sensor_id;sensor_type;location;lat;lon;timestamp;temperature;humidity
27781;DHT22;15167;1.318;103.762;2022-12-05T00:00:56;26.40;99.90
27781;DHT22;15167;1.318;103.762;2022-12-05T00:03:22;26.40;99.90
27781;DHT22;15167;1.318;103.762;2022-12-05T00:05:48;26.40;99.90
27781;DHT22;15167;1.318;103.762;2022-12-05T00:08:14;26.50;99.90
27781;DHT22;15167;1.318;103.762;2022-12-05T00:10:41;26.50;99.90
27781;DHT22;15167;1.318;103.762;2022-12-05T00:13:07;26.50;99.90
27781;DHT22;15167;1.318;103.762;2022-12-05T00:15:37;26.50;99.90
27781;DHT22;15167;1.318;103.762;2022-12-05T00:18:03;26.60;99.90
27781;DHT22;15167;1.318;103.762;2022-12-05T00:20:29;26.50;99.90
27781;DHT22;15167;1.318;103.762;2022-12-05T00:22:55;26.60;99.90
27781;DHT22;15167;1.318;103.762;2022-12-05T00:25:21;26.60;99.90
27781;DHT22;15167;1.318;103.762;2022-12-05T00:27:47;26.60;99.90
27781;DHT22;15167;1.318;103.762;2022-12-05T00:30:14;26.60;99.90
27781;DHT22;15167;1.318;103.762;2022-12-05T00:32:40;26.60;99.90
27781;DHT22;15167;1.318;103.762;2022-12-05T00:35:06;26.60;99.90
27781;DHT22;15167;1.318;103.762;2022-12-05T00:37:32;26.70;99.90
27781;DHT22;15167;1.318;103.762;2022-12-05T00:39:58;26.70;99.90
27781;DHT22;15167;1.318;103.762;2022-12-05T00:42:24;26.70;99.90
27781;DHT22;15167;1.318;103.762;2022-12-05T00:44:50;26.70;99.90
27781;DHT22;15167;1.318;103.762;2022-12-05T00:47:16;26.70;99.90
27781;DHT22;15167;1.318;103.762;2022-12-05T00:49:42;26.70;99.90
27781;DHT22;15167;1.318;103.762;2022-12-05T00:52:08;26.80;99.90
27781;DHT22;15167;1.318;103.762;2022-12-05T00:54:34;26.80;99.90
27781;DHT22;15167;1.318;103.762;2022-12-05T00:57:01;26.90;99.90
27781;DHT22;15167;1.318;103.762;2022-12-05T00:59:27;26.90;99.90
27781;DHT22;15167;1.318;103.762;2022-12-05T01:01:53;27.00;99.90
27781;DHT22;15167;1.318;103.762;2022-12-05T01:04:20;27.00;99.90
27781;DHT22;15167;1.318;103.762;2022-12-05T01:06:46;27.10;99.90
27781;DHT22;15167;1.318;103.762;2022-12-05T01:09:13;27.10;99.90
27781;DHT22;15167;1.318;103.762;2022-12-05T01:11:40;27.10;99.90
27781;DHT22;15167;1.318;103.762;2022-12-05T01:14:06;27.10;99.90
27781;DHT22;15167;1.318;103.762;2022-12-05T01:16:33;27.20;99.90
27781;DHT22;15167;1.318;103.762;2022-12-05T01:19:01;27.30;99.90
27781;DHT22;15167;1.318;103.762;2022-12-05T01:21:27;27.30;99.90
27781;DHT22;15167;1.318;103.762;2022-12-05T01:23:53;27.30;99.90
27781;DHT22;15167;1.318;103.762;2022-12-05T01:26:20;27.40;99.90
27781;DHT22;15167;1.318;103.762;2022-12-05T01:28:47;27.40;99.90
27781;DHT22;15167;1.318;103.762;2022-12-05T01:31:23;27.40;99.90
27781;DHT22;15167;1.318;103.762;2022-12-05T01:33:50;27.50;99.90
27781;DHT22;15167;1.318;103.762;2022-12-05T01:36:17;27.60;99.90
27781;DHT22;15167;1.318;103.762;2022-12-05T01:38:43;27.60;99.90
27781;DHT22;15167;1.318;103.762;2022-12-05T01:41:16;27.70;99.90
27781;DHT22;15167;1.318;103.762;2022-12-05T01:46:28;27.80;99.90
27781;DHT22;15167;1.318;103.762;2022-12-05T01:51:31;27.80;99.90
27781;DHT22;15167;1.318;103.762;2022-12-05T01:53:58;27.80;99.90
27781;DHT22;15167;1.318;103.762;2022-12-05T01:56:25;27.90;99.90
27781;DHT22;15167;1.318;103.762;2022-12-05T01:58:51;28.00;99.90
27781;DHT22;15167;1.318;103.762;2022-12-05T02:01:17;28.00;99.90
27781;DHT22;15167;1.318;103.762;2022-12-05T02:03:44;28.00;99.90
27781;DHT22;15167;1.318;103.762;2022-12-05T02:06:11;28.00;99.90
27781;DHT22;15167;1.318;103.762;2022-12-05T02:08:38;28.00;99.90
27781;DHT22;15167;1.318;103.762;2022-12-05T02:11:05;28.00;99.90
27781;DHT22;15167;1.318;103.762;2022-12-05T02:16:36;28.00;99.90
27781;DHT22;15167;1.318;103.762;2022-12-05T02:32:30;28.50;99.90
27781;DHT22;15167;1.318;103.762;2022-12-05T02:35:36;28.60;99.90
27781;DHT22;15167;1.318;103.762;2022-12-05T02:37:43;28.70;99.90
27781;DHT22;15167;1.318;103.762;2022-12-05T02:40:21;28.70;99.90
27781;DHT22;15167;1.318;103.762;2022-12-05T02:45:19;28.80;99.90
27781;DHT22;15167;1.318;103.762;2022-12-05T02:47:50;28.80;99.90
27781;DHT22;15167;1.318;103.762;2022-12-05T02:50:20;28.80;99.90
27781;DHT22;15167;1.318;103.762;2022-12-05T02:52:48;28.80;99.90
27781;DHT22;15167;1.318;103.762;2022-12-05T02:55:14;28.90;99.90
27781;DHT22;15167;1.318;103.762;2022-12-05T02:57:42;28.90;99.90
27781;DHT22;15167;1.318;103.762;2022-12-05T03:00:10;28.80;99.90
27781;DHT22;15167;1.318;103.762;2022-12-05T03:02:39;28.80;99.90
27781;DHT22;15167;1.318;103.762;2022-12-05T03:07:51;28.60;99.90
27781;DHT22;15167;1.318;103.762;2022-12-05T03:10:20;28.40;99.90
27781;DHT22;15167;1.318;103.762;2022-12-05T03:12:48;28.30;99.90
27781;DHT22;15167;1.318;103.762;2022-12-05T03:15:20;28.20;99.90
27781;DHT22;15167;1.318;103.762;2022-12-05T03:17:53;28.10;99.90
27781;DHT22;15167;1.318;103.762;2022-12-05T03:20:28;28.10;99.90
27781;DHT22;15167;1.318;103.762;2022-12-05T03:23:19;28.00;99.90
27781;DHT22;15167;1.318;103.762;2022-12-05T03:25:48;28.00;99.90
27781;DHT22;15167;1.318;103.762;2022-12-05T03:30:41;26.90;99.90
27781;DHT22;15167;1.318;103.762;2022-12-05T03:43:22;25.50;99.90
27781;DHT22;15167;1.318;103.762;2022-12-05T03:46:01;25.40;99.90
27781;DHT22;15167;1.318;103.762;2022-12-05T03:50:54;25.60;99.90
27781;DHT22;15167;1.318;103.762;2022-12-05T03:53:34;25.70;99.90
27781;DHT22;15167;1.318;103.762;2022-12-05T03:56:04;25.90;99.90
27781;DHT22;15167;1.318;103.762;2022-12-05T03:58:35;26.20;99.90
27781;DHT22;15167;1.318;103.762;2022-12-05T04:01:03;26.40;99.90
27781;DHT22;15167;1.318;103.762;2022-12-05T04:06:05;27.00;99.90
27781;DHT22;15167;1.318;103.762;2022-12-05T04:08:34;27.20;99.90
27781;DHT22;15167;1.318;103.762;2022-12-05T04:11:02;27.30;99.90
27781;DHT22;15167;1.318;103.762;2022-12-05T04:13:33;27.30;99.90
27781;DHT22;15167;1.318;103.762;2022-12-05T04:16:06;27.40;99.90
27781;DHT22;15167;1.318;103.762;2022-12-05T04:21:42;27.70;99.90
27781;DHT22;15167;1.318;103.762;2022-12-05T04:24:10;27.60;99.90
27781;DHT22;15167;1.318;103.762;2022-12-05T04:29:44;28.00;99.90
27781;DHT22;15167;1.318;103.762;2022-12-05T04:32:13;28.30;99.90
27781;DHT22;15167;1.318;103.762;2022-12-05T04:34:40;28.50;99.90
27781;DHT22;15167;1.318;103.762;2022-12-05T04:37:11;28.70;99.90
27781;DHT22;15167;1.318;103.762;2022-12-05T04:42:11;29.00;99.90
27781;DHT22;15167;1.318;103.762;2022-12-05T04:44:40;29.20;99.90
27781;DHT22;15167;1.318;103.762;2022-12-05T04:47:09;29.40;99.90
27781;DHT22;15167;1.318;103.762;2022-12-05T04:49:35;29.60;99.90
27781;DHT22;15167;1.318;103.762;2022-12-05T04:52:04;29.80;99.90
27781;DHT22;15167;1.318;103.762;2022-12-05T04:54:34;29.90;99.90
27781;DHT22;15167;1.318;103.762;2022-12-05T04:57:04;30.10;99.90
27781;DHT22;15167;1.318;103.762;2022-12-05T04:59:32;30.20;99.90
27781;DHT22;15167;1.318;103.762;2022-12-05T05:01:59;30.20;99.90
27781;DHT22;15167;1.318;103.762;2022-12-05T05:04:33;30.20;99.90
27781;DHT22;15167;1.318;103.762;2022-12-05T05:07:04;30.30;99.90
27781;DHT22;15167;1.318;103.762;2022-12-05T05:09:30;30.40;99.90
27781;DHT22;15167;1.318;103.762;2022-12-05T05:11:56;30.40;99.90
27781;DHT22;15167;1.318;103.762;2022-12-05T05:14:22;30.30;99.90
27781;DHT22;15167;1.318;103.762;2022-12-05T05:16:49;30.20;99.90
27781;DHT22;15167;1.318;103.762;2022-12-05T05:19:15;30.00;99.90
27781;DHT22;15167;1.318;103.762;2022-12-05T05:21:41;30.00;99.90
27781;DHT22;15167;1.318;103.762;2022-12-05T05:24:08;29.80;99.90
27781;DHT22;15167;1.318;103.762;2022-12-05T05:26:36;29.70;99.90
27781;DHT22;15167;1.318;103.762;2022-12-05T05:29:02;29.70;99.90
27781;DHT22;15167;1.318;103.762;2022-12-05T05:31:28;29.70;99.90
27781;DHT22;15167;1.318;103.762;2022-12-05T05:33:54;29.70;99.90
27781;DHT22;15167;1.318;103.762;2022-12-05T05:36:22;29.60;99.90
27781;DHT22;15167;1.318;103.762;2022-12-05T05:38:49;29.50;99.90
27781;DHT22;15167;1.318;103.762;2022-12-05T05:41:19;29.40;99.90
27781;DHT22;15167;1.318;103.762;2022-12-05T05:43:46;29.40;99.90
27781;DHT22;15167;1.318;103.762;2022-12-05T05:46:14;29.10;99.90
27781;DHT22;15167;1.318;103.762;2022-12-05T05:48:40;29.00;99.90
27781;DHT22;15167;1.318;103.762;2022-12-05T05:51:07;28.90;99.90
27781;DHT22;15167;1.318;103.762;2022-12-05T05:53:34;28.80;99.90
27781;DHT22;15167;1.318;103.762;2022-12-05T05:56:01;28.70;99.90
27781;DHT22;15167;1.318;103.762;2022-12-05T05:58:27;28.50;99.90
27781;DHT22;15167;1.318;103.762;2022-12-05T06:00:53;28.40;99.90
27781;DHT22;15167;1.318;103.762;2022-12-05T06:03:19;28.30;99.90
27781;DHT22;15167;1.318;103.762;2022-12-05T06:05:54;28.00;99.90
27781;DHT22;15167;1.318;103.762;2022-12-05T06:08:20;27.50;99.90
27781;DHT22;15167;1.318;103.762;2022-12-05T06:10:47;26.40;99.90
27781;DHT22;15167;1.318;103.762;2022-12-05T06:13:13;25.70;99.90
27781;DHT22;15167;1.318;103.762;2022-12-05T06:15:39;25.50;99.90
27781;DHT22;15167;1.318;103.762;2022-12-05T06:18:05;25.40;99.90
27781;DHT22;15167;1.318;103.762;2022-12-05T06:20:31;25.30;99.90
27781;DHT22;15167;1.318;103.762;2022-12-05T06:22:57;25.20;99.90
27781;DHT22;15167;1.318;103.762;2022-12-05T06:25:23;25.00;99.90
27781;DHT22;15167;1.318;103.762;2022-12-05T06:27:49;24.80;99.90
27781;DHT22;15167;1.318;103.762;2022-12-05T06:30:15;24.80;99.90
27781;DHT22;15167;1.318;103.762;2022-12-05T06:32:41;24.90;99.90
27781;DHT22;15167;1.318;103.762;2022-12-05T06:35:07;24.90;99.90
27781;DHT22;15167;1.318;103.762;2022-12-05T06:37:40;24.90;99.90
27781;DHT22;15167;1.318;103.762;2022-12-05T06:40:07;25.00;99.90
27781;DHT22;15167;1.318;103.762;2022-12-05T06:42:33;25.00;99.90
27781;DHT22;15167;1.318;103.762;2022-12-05T06:44:59;25.10;99.90
27781;DHT22;15167;1.318;103.762;2022-12-05T06:47:25;25.20;99.90
27781;DHT22;15167;1.318;103.762;2022-12-05T06:49:51;25.30;99.90
27781;DHT22;15167;1.318;103.762;2022-12-05T06:52:17;25.30;99.90
27781;DHT22;15167;1.318;103.762;2022-12-05T06:54:43;25.40;99.90
27781;DHT22;15167;1.318;103.762;2022-12-05T06:57:11;25.60;99.90
27781;DHT22;15167;1.318;103.762;2022-12-05T06:59:37;25.70;99.90
27781;DHT22;15167;1.318;103.762;2022-12-05T07:02:04;25.70;99.90
27781;DHT22;15167;1.318;103.762;2022-12-05T07:04:32;25.70;99.90
27781;DHT22;15167;1.318;103.762;2022-12-05T07:07:00;25.80;99.90
27781;DHT22;15167;1.318;103.762;2022-12-05T07:09:27;25.90;99.90
27781;DHT22;15167;1.318;103.762;2022-12-05T07:12:25;26.00;99.90
27781;DHT22;15167;1.318;103.762;2022-12-05T07:14:51;26.10;99.90
27781;DHT22;15167;1.318;103.762;2022-12-05T07:17:18;26.20;99.90
27781;DHT22;15167;1.318;103.762;2022-12-05T07:19:46;26.20;99.90
27781;DHT22;15167;1.318;103.762;2022-12-05T07:22:12;26.20;99.90
27781;DHT22;15167;1.318;103.762;2022-12-05T07:24:38;26.20;99.90
27781;DHT22;15167;1.318;103.762;2022-12-05T07:27:04;26.20;99.90
27781;DHT22;15167;1.318;103.762;2022-12-05T07:29:31;26.10;99.90
27781;DHT22;15167;1.318;103.762;2022-12-05T07:31:57;26.20;99.90
27781;DHT22;15167;1.318;103.762;2022-12-05T07:34:23;26.30;99.90
27781;DHT22;15167;1.318;103.762;2022-12-05T07:36:49;26.30;99.90
27781;DHT22;15167;1.318;103.762;2022-12-05T07:39:15;26.40;99.90
27781;DHT22;15167;1.318;103.762;2022-12-05T07:41:41;26.50;99.90
27781;DHT22;15167;1.318;103.762;2022-12-05T07:44:11;26.50;99.90
27781;DHT22;15167;1.318;103.762;2022-12-05T07:46:37;26.40;99.90
27781;DHT22;15167;1.318;103.762;2022-12-05T07:49:03;26.40;99.90
27781;DHT22;15167;1.318;103.762;2022-12-05T07:51:29;26.30;99.90
27781;DHT22;15167;1.318;103.762;2022-12-05T07:53:57;26.30;99.90
27781;DHT22;15167;1.318;103.762;2022-12-05T07:56:23;26.30;99.90
27781;DHT22;15167;1.318;103.762;2022-12-05T07:58:50;26.20;99.90
27781;DHT22;15167;1.318;103.762;2022-12-05T08:01:20;26.10;99.90
27781;DHT22;15167;1.318;103.762;2022-12-05T08:03:47;26.00;99.90
27781;DHT22;15167;1.318;103.762;2022-12-05T08:06:14;25.90;99.90
27781;DHT22;15167;1.318;103.762;2022-12-05T08:08:41;25.90;99.90
27781;DHT22;15167;1.318;103.762;2022-12-05T08:11:08;26.00;99.90
27781;DHT22;15167;1.318;103.762;2022-12-05T08:13:35;26.10;99.90
27781;DHT22;15167;1.318;103.762;2022-12-05T08:16:05;26.10;99.90
27781;DHT22;15167;1.318;103.762;2022-12-05T08:18:32;26.10;99.90
27781;DHT22;15167;1.318;103.762;2022-12-05T08:21:01;26.20;99.90
27781;DHT22;15167;1.318;103.762;2022-12-05T08:23:28;26.30;99.90
27781;DHT22;15167;1.318;103.762;2022-12-05T08:25:55;26.40;99.90
27781;DHT22;15167;1.318;103.762;2022-12-05T08:28:21;26.40;99.90
27781;DHT22;15167;1.318;103.762;2022-12-05T08:30:47;26.40;99.90
27781;DHT22;15167;1.318;103.762;2022-12-05T08:33:13;26.40;99.90
27781;DHT22;15167;1.318;103.762;2022-12-05T08:35:39;26.40;99.90
27781;DHT22;15167;1.318;103.762;2022-12-05T08:38:05;26.40;99.90
27781;DHT22;15167;1.318;103.762;2022-12-05T08:40:32;26.30;99.90
27781;DHT22;15167;1.318;103.762;2022-12-05T08:42:58;26.30;99.90
27781;DHT22;15167;1.318;103.762;2022-12-05T08:45:24;26.30;99.90
27781;DHT22;15167;1.318;103.762;2022-12-05T08:47:50;26.30;99.90
27781;DHT22;15167;1.318;103.762;2022-12-05T08:50:16;26.10;99.90
27781;DHT22;15167;1.318;103.762;2022-12-05T08:52:42;26.10;99.90
27781;DHT22;15167;1.318;103.762;2022-12-05T08:55:08;26.10;99.90
27781;DHT22;15167;1.318;103.762;2022-12-05T08:57:34;26.20;99.90
27781;DHT22;15167;1.318;103.762;2022-12-05T09:00:01;26.20;99.90
27781;DHT22;15167;1.318;103.762;2022-12-05T09:02:27;26.20;99.90
27781;DHT22;15167;1.318;103.762;2022-12-05T09:04:53;26.20;99.90
27781;DHT22;15167;1.318;103.762;2022-12-05T09:07:19;26.40;99.90
27781;DHT22;15167;1.318;103.762;2022-12-05T09:09:45;26.50;99.90
27781;DHT22;15167;1.318;103.762;2022-12-05T09:12:11;26.60;99.90
27781;DHT22;15167;1.318;103.762;2022-12-05T09:14:38;26.60;99.90
27781;DHT22;15167;1.318;103.762;2022-12-05T09:17:04;26.60;99.90
27781;DHT22;15167;1.318;103.762;2022-12-05T09:19:31;26.70;99.90
27781;DHT22;15167;1.318;103.762;2022-12-05T09:21:57;26.70;99.90
27781;DHT22;15167;1.318;103.762;2022-12-05T09:24:23;26.70;99.90
27781;DHT22;15167;1.318;103.762;2022-12-05T09:26:50;26.70;99.90
27781;DHT22;15167;1.318;103.762;2022-12-05T09:29:16;26.70;99.90
27781;DHT22;15167;1.318;103.762;2022-12-05T09:31:43;26.70;99.90
27781;DHT22;15167;1.318;103.762;2022-12-05T09:34:09;26.80;99.90
27781;DHT22;15167;1.318;103.762;2022-12-05T09:36:35;26.90;99.90
27781;DHT22;15167;1.318;103.762;2022-12-05T09:39:03;26.80;99.90
27781;DHT22;15167;1.318;103.762;2022-12-05T09:52:34;26.70;99.90
27781;DHT22;15167;1.318;103.762;2022-12-05T09:55:18;26.60;99.90
27781;DHT22;15167;1.318;103.762;2022-12-05T09:57:47;26.50;99.90
27781;DHT22;15167;1.318;103.762;2022-12-05T10:00:15;26.50;99.90
27781;DHT22;15167;1.318;103.762;2022-12-05T10:03:10;26.50;99.90
27781;DHT22;15167;1.318;103.762;2022-12-05T10:13:36;26.40;99.90
27781;DHT22;15167;1.318;103.762;2022-12-05T10:16:08;26.40;99.90
27781;DHT22;15167;1.318;103.762;2022-12-05T10:23:37;26.30;99.90
27781;DHT22;15167;1.318;103.762;2022-12-05T10:26:06;26.40;99.90
27781;DHT22;15167;1.318;103.762;2022-12-05T10:28:35;26.40;99.90
27781;DHT22;15167;1.318;103.762;2022-12-05T10:31:08;26.40;99.90
27781;DHT22;15167;1.318;103.762;2022-12-05T10:34:09;26.40;99.90
27781;DHT22;15167;1.318;103.762;2022-12-05T10:36:28;26.40;99.90
27781;DHT22;15167;1.318;103.762;2022-12-05T10:38:55;26.30;99.90
27781;DHT22;15167;1.318;103.762;2022-12-05T10:41:21;26.30;99.90
27781;DHT22;15167;1.318;103.762;2022-12-05T10:43:48;26.30;99.90
27781;DHT22;15167;1.318;103.762;2022-12-05T10:46:14;26.30;99.90
27781;DHT22;15167;1.318;103.762;2022-12-05T10:48:41;26.20;99.90
27781;DHT22;15167;1.318;103.762;2022-12-05T10:51:17;26.10;99.90
27781;DHT22;15167;1.318;103.762;2022-12-05T10:53:45;26.10;99.90
27781;DHT22;15167;1.318;103.762;2022-12-05T10:58:58;26.10;99.90
27781;DHT22;15167;1.318;103.762;2022-12-05T11:01:24;26.10;99.90
27781;DHT22;15167;1.318;103.762;2022-12-05T11:04:00;26.00;99.90
27781;DHT22;15167;1.318;103.762;2022-12-05T11:06:27;26.10;99.90
27781;DHT22;15167;1.318;103.762;2022-12-05T11:08:58;26.00;99.90
27781;DHT22;15167;1.318;103.762;2022-12-05T11:11:25;26.00;99.90
27781;DHT22;15167;1.318;103.762;2022-12-05T11:13:59;26.00;99.90
27781;DHT22;15167;1.318;103.762;2022-12-05T11:16:27;26.00;99.90
27781;DHT22;15167;1.318;103.762;2022-12-05T11:18:54;26.00;99.90
27781;DHT22;15167;1.318;103.762;2022-12-05T11:21:20;26.00;99.90
27781;DHT22;15167;1.318;103.762;2022-12-05T11:23:47;26.10;99.90
27781;DHT22;15167;1.318;103.762;2022-12-05T11:26:18;26.10;99.90
27781;DHT22;15167;1.318;103.762;2022-12-05T11:28:45;26.10;99.90
27781;DHT22;15167;1.318;103.762;2022-12-05T11:33:37;26.00;99.90
27781;DHT22;15167;1.318;103.762;2022-12-05T11:36:05;26.00;99.90
27781;DHT22;15167;1.318;103.762;2022-12-05T11:38:35;26.00;99.90
27781;DHT22;15167;1.318;103.762;2022-12-05T11:46:43;26.00;99.90
27781;DHT22;15167;1.318;103.762;2022-12-05T11:51:50;26.00;99.90
27781;DHT22;15167;1.318;103.762;2022-12-05T11:57:01;26.00;99.90
27781;DHT22;15167;1.318;103.762;2022-12-05T12:02:03;26.00;99.90
27781;DHT22;15167;1.318;103.762;2022-12-05T12:04:35;26.00;99.90
27781;DHT22;15167;1.318;103.762;2022-12-05T12:07:12;26.00;99.90
27781;DHT22;15167;1.318;103.762;2022-12-05T12:09:46;26.10;99.90
27781;DHT22;15167;1.318;103.762;2022-12-05T12:25:22;26.10;99.90
27781;DHT22;15167;1.318;103.762;2022-12-05T12:30:23;26.10;99.90
27781;DHT22;15167;1.318;103.762;2022-12-05T12:35:29;26.10;99.90
27781;DHT22;15167;1.318;103.762;2022-12-05T12:50:39;26.10;99.90
27781;DHT22;15167;1.318;103.762;2022-12-05T12:53:12;26.10;99.90
27781;DHT22;15167;1.318;103.762;2022-12-05T12:58:19;26.10;99.90
27781;DHT22;15167;1.318;103.762;2022-12-05T13:05:50;26.10;99.90
27781;DHT22;15167;1.318;103.762;2022-12-05T13:08:27;26.10;99.90
27781;DHT22;15167;1.318;103.762;2022-12-05T13:10:55;26.10;99.90
27781;DHT22;15167;1.318;103.762;2022-12-05T13:13:25;26.10;99.90
27781;DHT22;15167;1.318;103.762;2022-12-05T13:15:56;26.20;99.90
27781;DHT22;15167;1.318;103.762;2022-12-05T13:18:23;26.10;99.90
27781;DHT22;15167;1.318;103.762;2022-12-05T13:20:51;26.10;99.90
27781;DHT22;15167;1.318;103.762;2022-12-05T13:23:20;26.10;99.90
27781;DHT22;15167;1.318;103.762;2022-12-05T13:25:47;26.00;99.90
27781;DHT22;15167;1.318;103.762;2022-12-05T13:28:34;26.10;99.90
27781;DHT22;15167;1.318;103.762;2022-12-05T13:31:07;26.10;99.90
27781;DHT22;15167;1.318;103.762;2022-12-05T13:33:44;26.10;99.90
27781;DHT22;15167;1.318;103.762;2022-12-05T13:36:11;26.10;99.90
27781;DHT22;15167;1.318;103.762;2022-12-05T13:38:57;26.10;99.90
27781;DHT22;15167;1.318;103.762;2022-12-05T13:42:00;26.10;99.90
27781;DHT22;15167;1.318;103.762;2022-12-05T13:44:43;26.10;99.90
27781;DHT22;15167;1.318;103.762;2022-12-05T13:52:21;26.10;99.90
27781;DHT22;15167;1.318;103.762;2022-12-05T13:55:03;26.10;99.90
27781;DHT22;15167;1.318;103.762;2022-12-05T14:00:24;26.10;99.90
27781;DHT22;15167;1.318;103.762;2022-12-05T14:02:50;26.20;99.90
27781;DHT22;15167;1.318;103.762;2022-12-05T14:07:46;26.10;99.90
27781;DHT22;15167;1.318;103.762;2022-12-05T14:10:14;26.10;99.90
27781;DHT22;15167;1.318;103.762;2022-12-05T14:15:28;26.10;99.90
27781;DHT22;15167;1.318;103.762;2022-12-05T14:18:07;26.10;99.90
27781;DHT22;15167;1.318;103.762;2022-12-05T14:33:44;26.00;99.90
27781;DHT22;15167;1.318;103.762;2022-12-05T14:36:15;26.10;99.90
27781;DHT22;15167;1.318;103.762;2022-12-05T14:38:41;26.10;99.90
27781;DHT22;15167;1.318;103.762;2022-12-05T14:41:22;26.10;99.90
27781;DHT22;15167;1.318;103.762;2022-12-05T14:43:52;26.10;99.90
27781;DHT22;15167;1.318;103.762;2022-12-05T14:48:48;26.10;99.90
27781;DHT22;15167;1.318;103.762;2022-12-05T14:54:03;26.00;99.90
27781;DHT22;15167;1.318;103.762;2022-12-05T14:56:31;26.00;99.90
27781;DHT22;15167;1.318;103.762;2022-12-05T15:04:16;26.00;99.90
27781;DHT22;15167;1.318;103.762;2022-12-05T15:07:16;26.00;99.90
27781;DHT22;15167;1.318;103.762;2022-12-05T15:12:12;26.00;99.90
27781;DHT22;15167;1.318;103.762;2022-12-05T15:14:42;26.00;99.90
27781;DHT22;15167;1.318;103.762;2022-12-05T15:17:10;26.00;99.90
27781;DHT22;15167;1.318;103.762;2022-12-05T15:19:48;26.00;99.90
27781;DHT22;15167;1.318;103.762;2022-12-05T15:22:16;26.00;99.90
27781;DHT22;15167;1.318;103.762;2022-12-05T15:24:43;25.90;99.90
27781;DHT22;15167;1.318;103.762;2022-12-05T15:27:09;25.90;99.90
27781;DHT22;15167;1.318;103.762;2022-12-05T15:29:36;25.90;99.90
27781;DHT22;15167;1.318;103.762;2022-12-05T15:32:05;25.90;99.90
27781;DHT22;15167;1.318;103.762;2022-12-05T15:42:26;25.90;99.90
27781;DHT22;15167;1.318;103.762;2022-12-05T15:44:59;25.90;99.90
27781;DHT22;15167;1.318;103.762;2022-12-05T15:47:25;25.90;99.90
27781;DHT22;15167;1.318;103.762;2022-12-05T15:49:51;25.90;99.90
27781;DHT22;15167;1.318;103.762;2022-12-05T15:52:22;25.90;99.90
27781;DHT22;15167;1.318;103.762;2022-12-05T15:54:50;25.90;99.90
27781;DHT22;15167;1.318;103.762;2022-12-05T15:57:21;25.90;99.90
27781;DHT22;15167;1.318;103.762;2022-12-05T15:59:51;25.90;99.90
27781;DHT22;15167;1.318;103.762;2022-12-05T16:02:41;25.90;99.90
27781;DHT22;15167;1.318;103.762;2022-12-05T16:05:15;25.90;99.90
27781;DHT22;15167;1.318;103.762;2022-12-05T16:07:43;25.90;99.90
27781;DHT22;15167;1.318;103.762;2022-12-05T16:10:13;25.80;99.90
27781;DHT22;15167;1.318;103.762;2022-12-05T16:12:40;25.80;99.90
27781;DHT22;15167;1.318;103.762;2022-12-05T16:15:10;25.80;99.90
27781;DHT22;15167;1.318;103.762;2022-12-05T16:17:39;25.70;99.90
27781;DHT22;15167;1.318;103.762;2022-12-05T16:22:45;25.80;99.90
27781;DHT22;15167;1.318;103.762;2022-12-05T16:25:16;25.80;99.90
27781;DHT22;15167;1.318;103.762;2022-12-05T16:27:53;25.70;99.90
27781;DHT22;15167;1.318;103.762;2022-12-05T16:30:21;25.70;99.90
27781;DHT22;15167;1.318;103.762;2022-12-05T16:32:48;25.70;99.90
27781;DHT22;15167;1.318;103.762;2022-12-05T16:43:18;25.70;99.90
27781;DHT22;15167;1.318;103.762;2022-12-05T16:45:48;25.80;99.90
27781;DHT22;15167;1.318;103.762;2022-12-05T16:50:44;25.80;99.90
27781;DHT22;15167;1.318;103.762;2022-12-05T16:53:16;25.80;99.90
27781;DHT22;15167;1.318;103.762;2022-12-05T16:55:43;25.80;99.90
27781;DHT22;15167;1.318;103.762;2022-12-05T16:58:19;25.80;99.90
27781;DHT22;15167;1.318;103.762;2022-12-05T17:00:46;25.80;99.90
27781;DHT22;15167;1.318;103.762;2022-12-05T17:03:13;25.70;99.90
27781;DHT22;15167;1.318;103.762;2022-12-05T17:05:39;25.80;99.90
27781;DHT22;15167;1.318;103.762;2022-12-05T17:08:05;25.80;99.90
27781;DHT22;15167;1.318;103.762;2022-12-05T17:10:31;25.80;99.90
27781;DHT22;15167;1.318;103.762;2022-12-05T17:12:57;25.70;99.90
27781;DHT22;15167;1.318;103.762;2022-12-05T17:15:27;25.80;99.90
27781;DHT22;15167;1.318;103.762;2022-12-05T17:17:54;25.80;99.90
27781;DHT22;15167;1.318;103.762;2022-12-05T17:20:20;25.80;99.90
27781;DHT22;15167;1.318;103.762;2022-12-05T17:22:46;25.70;99.90
27781;DHT22;15167;1.318;103.762;2022-12-05T17:25:16;25.80;99.90
27781;DHT22;15167;1.318;103.762;2022-12-05T17:27:43;25.70;99.90
27781;DHT22;15167;1.318;103.762;2022-12-05T17:30:09;25.70;99.90
27781;DHT22;15167;1.318;103.762;2022-12-05T17:32:35;25.70;99.90
27781;DHT22;15167;1.318;103.762;2022-12-05T17:35:01;25.70;99.90
27781;DHT22;15167;1.318;103.762;2022-12-05T17:37:27;25.70;99.90
27781;DHT22;15167;1.318;103.762;2022-12-05T17:39:53;25.70;99.90
27781;DHT22;15167;1.318;103.762;2022-12-05T17:42:19;25.70;99.90
27781;DHT22;15167;1.318;103.762;2022-12-05T17:44:46;25.70;99.90
27781;DHT22;15167;1.318;103.762;2022-12-05T17:47:12;25.70;99.90
27781;DHT22;15167;1.318;103.762;2022-12-05T17:49:38;25.60;99.90
27781;DHT22;15167;1.318;103.762;2022-12-05T17:52:04;25.60;99.90
27781;DHT22;15167;1.318;103.762;2022-12-05T17:54:30;25.50;99.90
27781;DHT22;15167;1.318;103.762;2022-12-05T17:56:57;25.50;99.90
27781;DHT22;15167;1.318;103.762;2022-12-05T17:59:24;25.50;99.90
27781;DHT22;15167;1.318;103.762;2022-12-05T18:01:50;25.50;99.90
27781;DHT22;15167;1.318;103.762;2022-12-05T18:04:16;25.50;99.90
27781;DHT22;15167;1.318;103.762;2022-12-05T18:06:42;25.50;99.90
27781;DHT22;15167;1.318;103.762;2022-12-05T18:09:08;25.50;99.90
27781;DHT22;15167;1.318;103.762;2022-12-05T18:11:34;25.50;99.90
27781;DHT22;15167;1.318;103.762;2022-12-05T18:14:00;25.60;99.90
27781;DHT22;15167;1.318;103.762;2022-12-05T18:16:26;25.50;99.90
27781;DHT22;15167;1.318;103.762;2022-12-05T18:18:52;25.50;99.90
27781;DHT22;15167;1.318;103.762;2022-12-05T18:21:19;25.60;99.90
27781;DHT22;15167;1.318;103.762;2022-12-05T18:23:45;25.50;99.90
27781;DHT22;15167;1.318;103.762;2022-12-05T18:26:11;25.60;99.90
27781;DHT22;15167;1.318;103.762;2022-12-05T18:28:38;25.60;99.90
27781;DHT22;15167;1.318;103.762;2022-12-05T18:31:05;25.60;99.90
27781;DHT22;15167;1.318;103.762;2022-12-05T18:33:33;25.60;99.90
27781;DHT22;15167;1.318;103.762;2022-12-05T18:36:03;25.60;99.90
27781;DHT22;15167;1.318;103.762;2022-12-05T18:38:29;25.60;99.90